Time;durP1;ratioP1;P1;durP2;ratioP2;P2;SDS_P1;SDS_P2;PMS_P1;PMS_P2;Temp;Humidity;BMP_temperature;BMP_pressure;BME280_temperature;BME280_humidity;BME280_pressure;Samples;Min_cycle;Max_cycle;Signal;HPM_P1;HPM_P2
2021/10/22 00:02:06;;;;;;;;;;;7.50;1.00;;;;;;5089229;28;19913;-82
2021/10/22 00:04:31;;;;;;;;;;;7.50;1.00;;;;;;5090959;28;19935;-83
2021/10/22 00:06:57;;;;;;;;;;;7.40;1.00;;;;;;5087301;28;20012;-84
2021/10/22 00:09:23;;;;;;;;;;;7.40;1.00;;;;;;5072814;28;19913;-85
2021/10/22 00:11:48;;;;;;;;;;;7.40;1.00;;;;;;5086916;28;19972;-83
2021/10/22 00:14:14;;;;;;;;;;;7.30;1.00;;;;;;5089310;28;19958;-83
2021/10/22 00:16:40;;;;;;;;;;;7.30;1.00;;;;;;5081373;28;20434;-83
2021/10/22 00:19:06;;;;;;;;;;;7.20;1.00;;;;;;5085472;28;19913;-83
2021/10/22 00:21:31;;;;;;;;;;;7.20;1.00;;;;;;5080485;28;20396;-83
2021/10/22 00:23:57;;;;;;;;;;;7.10;1.00;;;;;;5085402;28;19956;-83
2021/10/22 00:26:22;;;;;;;;;;;7.10;1.00;;;;;;5061870;28;20630;-83
2021/10/22 00:28:48;;;;;;;;;;;7.00;1.00;;;;;;5085317;28;20292;-82
2021/10/22 00:31:13;;;;;;;;;;;7.00;1.00;;;;;;5078565;28;20402;-83
2021/10/22 00:33:39;;;;;;;;;;;7.00;1.00;;;;;;5085182;28;19912;-83
2021/10/22 00:36:06;;;;;;;;;;;6.90;1.00;;;;;;5078968;28;19942;-82
2021/10/22 00:38:32;;;;;;;;;;;6.90;1.00;;;;;;5085620;28;19916;-82
2021/10/22 00:40:57;;;;;;;;;;;6.90;1.00;;;;;;5077831;28;19913;-83
2021/10/22 00:43:23;;;;;;;;;;;6.90;1.00;;;;;;5067310;28;19913;-83
2021/10/22 00:45:51;;;;;;;;;;;6.80;1.00;;;;;;5076705;28;19916;-83
2021/10/22 00:48:16;;;;;;;;;;;6.80;1.00;;;;;;5084244;28;19912;-82
2021/10/22 00:50:42;;;;;;;;;;;6.80;1.00;;;;;;5093805;28;19919;-83
2021/10/22 00:53:07;;;;;;;;;;;6.70;1.00;;;;;;5088269;28;20011;-83
2021/10/22 00:55:33;;;;;;;;;;;6.70;1.00;;;;;;5081265;28;19912;-83
2021/10/22 00:57:59;;;;;;;;;;;6.70;1.00;;;;;;5084528;28;19935;-83
2021/10/22 01:00:24;;;;;;;;;;;6.70;1.00;;;;;;5100811;28;19915;-83
2021/10/22 01:02:50;;;;;;;;;;;6.60;1.00;;;;;;5087794;28;19939;-83
2021/10/22 01:05:16;;;;;;;;;;;6.70;1.00;;;;;;5082401;28;19919;-83
2021/10/22 01:07:42;;;;;;;;;;;6.70;1.00;;;;;;5078906;28;19908;-83
2021/10/22 01:10:08;;;;;;;;;;;6.60;1.00;;;;;;5093017;28;20380;-83
2021/10/22 01:12:34;;;;;;;;;;;6.60;1.00;;;;;;5079045;28;19937;-83
2021/10/22 01:15:00;;;;;;;;;;;6.60;1.00;;;;;;5095178;28;19920;-83
2021/10/22 01:17:32;;;;;;;;;;;6.60;1.00;;;;;;5096051;28;20009;-82
2021/10/22 01:19:57;;;;;;;;;;;6.60;1.00;;;;;;5081758;28;19912;-83
2021/10/22 01:22:23;;;;;;;;;;;6.50;1.00;;;;;;5076561;28;19916;-83
2021/10/22 01:24:49;;;;;;;;;;;6.50;1.00;;;;;;5095875;28;19919;-82
2021/10/22 01:27:14;;;;;;;;;;;6.50;1.00;;;;;;5073881;28;19912;-83
2021/10/22 01:29:40;;;;;;;;;;;6.50;1.00;;;;;;5088199;28;19912;-83
2021/10/22 01:32:06;;;;;;;;;;;6.50;1.00;;;;;;5098145;28;19912;-83
2021/10/22 01:34:32;;;;;;;;;;;6.50;1.00;;;;;;5078274;28;20007;-83
2021/10/22 01:36:57;;;;;;;;;;;6.40;1.00;;;;;;5080056;28;19908;-83
2021/10/22 01:39:22;;;;;;;;;;;6.40;1.00;;;;;;5100394;28;20391;-83
2021/10/22 01:41:48;;;;;;;;;;;6.40;1.00;;;;;;5096899;28;19930;-83
2021/10/22 01:44:16;;;;;;;;;;;6.40;1.00;;;;;;5090088;28;19919;-82
2021/10/22 01:46:41;;;;;;;;;;;6.40;1.00;;;;;;5090976;28;19916;-83
2021/10/22 01:49:08;;;;;;;;;;;6.40;1.00;;;;;;5087855;28;19967;-83
2021/10/22 01:51:34;;;;;;;;;;;6.40;1.00;;;;;;5093408;28;20007;-83
2021/10/22 01:53:59;;;;;;;;;;;6.30;1.00;;;;;;5090560;28;19962;-83
2021/10/22 01:56:25;;;;;;;;;;;6.30;1.00;;;;;;5087803;28;19946;-83
2021/10/22 01:58:50;;;;;;;;;;;6.30;1.00;;;;;;5088427;28;19908;-83
2021/10/22 02:01:16;;;;;;;;;;;6.30;1.00;;;;;;5082067;28;19911;-83
2021/10/22 02:03:41;;;;;;;;;;;6.30;1.00;;;;;;5090475;28;19912;-83
2021/10/22 02:06:06;;;;;;;;;;;6.20;1.00;;;;;;5083718;28;19913;-83
2021/10/22 02:08:32;;;;;;;;;;;6.20;1.00;;;;;;5090223;28;19923;-83
2021/10/22 02:10:58;;;;;;;;;;;6.20;1.00;;;;;;5082346;28;19912;-83
2021/10/22 02:13:23;;;;;;;;;;;6.20;1.00;;;;;;5086399;28;19912;-83
2021/10/22 02:15:49;;;;;;;;;;;6.20;1.00;;;;;;5084530;28;19927;-83
2021/10/22 02:18:14;;;;;;;;;;;6.20;1.00;;;;;;5073964;28;19915;-83
2021/10/22 02:20:39;;;;;;;;;;;6.20;1.00;;;;;;5099743;28;19916;-83
2021/10/22 02:23:05;;;;;;;;;;;6.20;1.00;;;;;;5090656;28;19934;-83
2021/10/22 02:25:31;;;;;;;;;;;6.10;1.00;;;;;;5087095;28;20351;-83
2021/10/22 02:27:56;;;;;;;;;;;6.10;1.00;;;;;;5093565;28;19912;-83
2021/10/22 02:30:22;;;;;;;;;;;6.10;1.00;;;;;;5091222;28;19943;-83
2021/10/22 02:32:48;;;;;;;;;;;6.10;1.00;;;;;;5080633;28;19912;-83
2021/10/22 02:35:13;;;;;;;;;;;6.10;1.00;;;;;;5093770;28;20034;-83
2021/10/22 02:37:42;;;;;;;;;;;6.10;1.00;;;;;;5095022;28;19926;-83
2021/10/22 02:40:09;;;;;;;;;;;6.10;1.00;;;;;;5087896;28;19947;-82
2021/10/22 02:42:34;;;;;;;;;;;6.10;1.00;;;;;;5093280;28;19944;-83
2021/10/22 02:45:00;;;;;;;;;;;6.10;1.00;;;;;;5087124;28;20480;-81
2021/10/22 02:47:25;;;;;;;;;;;6.10;1.00;;;;;;5093058;28;19919;-83
2021/10/22 02:49:51;;;;;;;;;;;6.00;99.90;;;;;;5086483;28;19909;-83
2021/10/22 02:52:16;;;;;;;;;;;6.00;99.90;;;;;;5080493;28;19920;-83
2021/10/22 02:54:42;;;;;;;;;;;6.00;99.90;;;;;;5089553;28;19919;-83
2021/10/22 02:57:07;;;;;;;;;;;6.10;99.90;;;;;;5090284;28;19919;-83
2021/10/22 02:59:33;;;;;;;;;;;6.00;99.90;;;;;;5070365;28;19916;-83
2021/10/22 03:01:58;;;;;;;;;;;6.00;99.90;;;;;;5091485;28;19920;-82
2021/10/22 03:04:24;;;;;;;;;;;6.00;99.90;;;;;;5101784;28;19971;-83
2021/10/22 03:06:49;;;;;;;;;;;6.00;99.90;;;;;;5090403;28;19916;-83
2021/10/22 03:09:15;;;;;;;;;;;6.00;99.90;;;;;;5081765;28;20433;-84
2021/10/22 03:11:40;;;;;;;;;;;6.00;99.90;;;;;;5090281;28;19952;-82
2021/10/22 03:14:05;;;;;;;;;;;6.00;99.90;;;;;;5102443;28;19908;-83
2021/10/22 03:16:31;;;;;;;;;;;6.00;99.90;;;;;;5094836;28;19935;-83
2021/10/22 03:18:56;;;;;;;;;;;6.00;99.90;;;;;;5099631;28;19943;-83
2021/10/22 03:21:23;;;;;;;;;;;6.00;99.90;;;;;;5090683;28;19920;-83
2021/10/22 03:23:48;;;;;;;;;;;5.90;99.90;;;;;;5077276;28;19916;-83
2021/10/22 03:26:14;;;;;;;;;;;5.90;99.90;;;;;;5095840;28;19939;-83
2021/10/22 03:28:39;;;;;;;;;;;5.90;99.90;;;;;;5088032;28;20273;-82
2021/10/22 03:31:04;;;;;;;;;;;5.90;99.90;;;;;;5071341;28;19913;-83
2021/10/22 03:33:30;;;;;;;;;;;5.90;99.90;;;;;;5087242;28;19919;-82
2021/10/22 03:35:56;;;;;;;;;;;5.90;99.90;;;;;;5081916;28;19912;-82
2021/10/22 03:38:21;;;;;;;;;;;5.90;99.90;;;;;;5068273;28;19916;-83
2021/10/22 03:40:47;;;;;;;;;;;5.90;99.90;;;;;;5083312;28;19923;-82
2021/10/22 03:43:12;;;;;;;;;;;5.90;99.90;;;;;;5086919;28;20261;-83
2021/10/22 03:45:38;;;;;;;;;;;5.90;99.90;;;;;;5083177;28;19916;-83
2021/10/22 03:48:03;;;;;;;;;;;5.90;99.90;;;;;;5088073;28;20037;-82
2021/10/22 03:50:29;;;;;;;;;;;5.90;99.90;;;;;;5081363;28;19912;-83
2021/10/22 03:52:54;;;;;;;;;;;5.90;99.90;;;;;;5096294;28;19908;-83
2021/10/22 03:55:20;;;;;;;;;;;5.90;99.90;;;;;;5079213;28;19916;-83
2021/10/22 03:57:45;;;;;;;;;;;5.90;99.90;;;;;;5085995;28;20387;-82
2021/10/22 04:00:11;;;;;;;;;;;5.90;99.90;;;;;;5085738;28;20103;-82
2021/10/22 04:02:36;;;;;;;;;;;5.90;99.90;;;;;;5088991;28;20387;-82
2021/10/22 04:05:05;;;;;;;;;;;5.90;99.90;;;;;;5093049;28;19900;-83
2021/10/22 04:07:31;;;;;;;;;;;5.90;99.90;;;;;;5095721;28;19927;-83
2021/10/22 04:09:56;;;;;;;;;;;5.90;99.90;;;;;;5094013;28;19959;-83
2021/10/22 04:12:22;;;;;;;;;;;5.90;99.90;;;;;;5086174;28;20001;-83
2021/10/22 04:14:47;;;;;;;;;;;5.90;99.90;;;;;;5093022;28;19918;-83
2021/10/22 04:17:12;;;;;;;;;;;5.90;99.90;;;;;;5092635;28;19912;-83
2021/10/22 04:19:40;;;;;;;;;;;5.90;99.90;;;;;;5092877;28;19947;-83
2021/10/22 04:22:06;;;;;;;;;;;5.90;99.90;;;;;;5090068;28;19918;-82
2021/10/22 04:24:31;;;;;;;;;;;5.90;99.90;;;;;;5103617;28;20373;-83
2021/10/22 04:26:56;;;;;;;;;;;5.90;99.90;;;;;;5085256;28;19997;-83
2021/10/22 04:29:22;;;;;;;;;;;5.90;99.90;;;;;;5082951;28;19908;-83
2021/10/22 04:31:47;;;;;;;;;;;5.90;99.90;;;;;;5110878;22;19934;-76
2021/10/22 04:34:13;;;;;;;;;;;5.90;99.90;;;;;;5071759;28;20334;-76
2021/10/22 04:36:39;;;;;;;;;;;5.90;99.90;;;;;;5067621;28;19912;-79
2021/10/22 04:41:49;;;;;;;;;;;5.90;99.90;;;;;;5068663;28;19919;-77
2021/10/22 04:44:15;;;;;;;;;;;5.90;99.90;;;;;;5088175;28;19952;-80
2021/10/22 04:46:41;;;;;;;;;;;5.90;93.00;;;;;;5076194;28;21175;-78
2021/10/22 04:49:06;;;;;;;;;;;5.90;59.60;;;;;;5076648;28;19913;-78
2021/10/22 04:51:31;;;;;;;;;;;5.90;4.30;;;;;;5069607;28;19920;-79
2021/10/22 04:53:57;;;;;;;;;;;6.00;1.00;;;;;;5077357;28;19919;-79
2021/10/22 04:56:23;;;;;;;;;;;6.00;1.00;;;;;;5065301;28;19916;-78
2021/10/22 04:58:48;;;;;;;;;;;5.90;1.00;;;;;;5077214;28;19917;-78
2021/10/22 05:01:14;;;;;;;;;;;6.00;1.00;;;;;;5077326;28;19908;-79
2021/10/22 05:03:39;;;;;;;;;;;6.00;1.00;;;;;;5077998;28;20011;-78
2021/10/22 05:06:05;;;;;;;;;;;6.00;1.00;;;;;;5064388;28;19948;-80
2021/10/22 05:08:30;;;;;;;;;;;6.00;1.00;;;;;;5076304;28;20420;-79
2021/10/22 05:10:56;;;;;;;;;;;6.00;1.00;;;;;;5076738;28;19908;-78
2021/10/22 05:13:22;;;;;;;;;;;6.00;1.00;;;;;;5076028;28;19920;-79
2021/10/22 05:15:48;;;;;;;;;;;6.00;1.00;;;;;;5075717;28;19909;-75
2021/10/22 05:18:13;;;;;;;;;;;6.00;1.00;;;;;;5075532;28;20002;-80
2021/10/22 05:20:38;;;;;;;;;;;6.00;1.00;;;;;;5077441;28;19915;-79
2021/10/22 05:23:04;;;;;;;;;;;6.00;1.00;;;;;;5076064;28;19916;-79
2021/10/22 05:25:29;;;;;;;;;;;6.10;1.00;;;;;;5076128;28;20291;-80
2021/10/22 05:27:55;;;;;;;;;;;6.10;99.90;;;;;;5075672;28;19928;-79
2021/10/22 05:30:20;;;;;;;;;;;6.10;99.90;;;;;;5065479;28;19912;-79
2021/10/22 05:32:46;;;;;;;;;;;6.00;99.90;;;;;;5068838;28;19917;-79
2021/10/22 05:35:11;;;;;;;;;;;6.00;99.90;;;;;;5073756;28;20011;-79
2021/10/22 05:37:38;;;;;;;;;;;6.00;99.90;;;;;;5068760;28;20006;-77
2021/10/22 05:40:03;;;;;;;;;;;6.00;99.90;;;;;;5071625;28;19912;-79
2021/10/22 05:42:29;;;;;;;;;;;6.00;99.90;;;;;;5074896;28;19951;-79
2021/10/22 05:44:54;;;;;;;;;;;6.00;99.90;;;;;;5069668;28;19947;-78
2021/10/22 05:47:20;;;;;;;;;;;6.00;99.90;;;;;;5068694;28;19923;-79
2021/10/22 05:49:45;;;;;;;;;;;6.10;81.10;;;;;;5081273;28;20014;-79
2021/10/22 05:52:11;;;;;;;;;;;6.20;1.00;;;;;;5079869;28;19931;-78
2021/10/22 05:54:36;;;;;;;;;;;6.20;1.00;;;;;;5082538;28;19909;-79
2021/10/22 05:57:02;;;;;;;;;;;6.20;1.00;;;;;;5082606;28;19912;-80
2021/10/22 05:59:27;;;;;;;;;;;6.20;99.90;;;;;;5082370;28;19915;-79
2021/10/22 06:01:53;;;;;;;;;;;6.30;99.90;;;;;;5082146;28;20629;-80
2021/10/22 06:04:19;;;;;;;;;;;6.30;99.90;;;;;;5074425;28;20392;-79
2021/10/22 06:06:44;;;;;;;;;;;6.30;58.10;;;;;;5082263;28;20352;-82
2021/10/22 06:09:11;;;;;;;;;;;6.30;16.40;;;;;;5078999;28;19912;-80
2021/10/22 06:11:37;;;;;;;;;;;6.30;1.00;;;;;;5082747;28;20003;-80
2021/10/22 06:14:03;;;;;;;;;;;6.30;1.00;;;;;;5071202;28;19909;-78
2021/10/22 06:16:29;;;;;;;;;;;6.30;1.00;;;;;;5082483;28;20369;-78
2021/10/22 06:19:01;;;;;;;;;;;6.30;1.00;;;;;;5072632;28;19914;-80
2021/10/22 06:21:29;;;;;;;;;;;6.40;1.00;;;;;;5072571;28;19944;-79
2021/10/22 06:23:55;;;;;;;;;;;6.40;1.00;;;;;;5071576;28;19909;-79
2021/10/22 06:26:22;;;;;;;;;;;6.50;99.90;;;;;;5081495;28;20020;-79
2021/10/22 06:28:47;;;;;;;;;;;6.50;99.90;;;;;;5082102;28;19915;-81
2021/10/22 06:31:14;;;;;;;;;;;6.60;47.30;;;;;;5080859;28;19917;-79
2021/10/22 06:33:39;;;;;;;;;;;6.70;33.50;;;;;;5082917;28;19935;-79
2021/10/22 06:36:06;;;;;;;;;;;6.80;1.00;;;;;;5070666;28;20292;-78
2021/10/22 06:38:32;;;;;;;;;;;6.90;99.90;;;;;;5078780;28;19950;-78
2021/10/22 06:40:58;;;;;;;;;;;7.00;99.90;;;;;;5077845;28;19941;-80
2021/10/22 06:43:23;;;;;;;;;;;7.10;1.50;;;;;;5069172;28;19920;-78
2021/10/22 06:45:49;;;;;;;;;;;7.20;1.00;;;;;;5082118;28;19916;-81
2021/10/22 06:48:15;;;;;;;;;;;7.30;99.90;;;;;;5082664;28;19912;-79
2021/10/22 06:50:40;;;;;;;;;;;7.40;99.90;;;;;;5086250;28;19966;-79
2021/10/22 06:53:07;;;;;;;;;;;7.50;1.00;;;;;;5083933;28;19989;-79
2021/10/22 06:55:33;;;;;;;;;;;7.70;1.00;;;;;;5085911;28;19913;-79
2021/10/22 06:57:58;;;;;;;;;;;8.20;1.00;;;;;;5077354;28;19919;-79
2021/10/22 07:00:26;;;;;;;;;;;8.70;32.70;;;;;;5085730;28;19917;-80
2021/10/22 07:02:53;;;;;;;;;;;8.70;1.00;;;;;;5075646;28;19923;-81
2021/10/22 07:05:36;;;;;;;;;;;9.40;99.90;;;;;;5074071;28;19917;-81
2021/10/22 07:08:02;;;;;;;;;;;10.70;99.80;;;;;;5069123;28;20380;-77
2021/10/22 07:10:29;;;;;;;;;;;13.10;2.70;;;;;;5074970;28;19916;-77
2021/10/22 07:12:55;;;;;;;;;;;15.40;1.00;;;;;;5061071;28;19913;-78
2021/10/22 07:15:21;;;;;;;;;;;17.20;1.00;;;;;;5075587;28;20694;-79
2021/10/22 07:17:46;;;;;;;;;;;18.70;1.00;;;;;;5075085;28;20407;-78
2021/10/22 07:20:12;;;;;;;;;;;19.90;1.00;;;;;;5076788;28;19919;-78
2021/10/22 07:22:47;;;;;;;;;;;20.90;1.00;;;;;;5075848;28;19917;-78
2021/10/22 07:25:13;;;;;;;;;;;21.60;1.00;;;;;;5076063;28;19970;-78
2021/10/22 07:27:39;;;;;;;;;;;22.30;1.00;;;;;;5070349;28;19912;-78
2021/10/22 07:30:04;;;;;;;;;;;22.80;1.00;;;;;;5071959;28;20358;-79
2021/10/22 07:32:30;;;;;;;;;;;23.30;99.90;;;;;;5068190;28;20010;-78
2021/10/22 07:34:55;;;;;;;;;;;23.90;99.90;;;;;;5074324;28;19956;-77
2021/10/22 07:37:21;;;;;;;;;;;24.20;99.90;;;;;;5072540;28;19913;-78
2021/10/22 07:39:46;;;;;;;;;;;24.60;99.90;;;;;;5068667;28;20277;-78
2021/10/22 07:42:12;;;;;;;;;;;24.80;99.90;;;;;;5073684;28;19991;-78
2021/10/22 07:44:37;;;;;;;;;;;25.10;99.90;;;;;;5075257;28;19916;-77
2021/10/22 07:47:03;;;;;;;;;;;23.50;99.90;;;;;;5073823;28;20339;-79
2021/10/22 07:49:29;;;;;;;;;;;21.70;99.90;;;;;;5075197;28;20383;-77
2021/10/22 07:51:54;;;;;;;;;;;20.50;99.90;;;;;;5075426;28;19908;-77
2021/10/22 07:54:20;;;;;;;;;;;21.70;99.90;;;;;;5075041;28;19945;-79
2021/10/22 07:56:45;;;;;;;;;;;23.30;99.90;;;;;;5073423;28;20292;-78
2021/10/22 07:59:11;;;;;;;;;;;23.50;99.90;;;;;;5065113;28;19921;-77
2021/10/22 08:01:37;;;;;;;;;;;23.20;99.90;;;;;;5073795;28;19960;-78
2021/10/22 08:04:03;;;;;;;;;;;22.40;99.90;;;;;;5066419;28;19912;-78
2021/10/22 08:06:30;;;;;;;;;;;20.50;99.90;;;;;;5073230;28;19975;-78
2021/10/22 08:08:56;;;;;;;;;;;21.60;99.90;;;;;;5070153;28;19913;-77
2021/10/22 08:11:22;;;;;;;;;;;23.00;99.90;;;;;;5067225;28;19919;-77
2021/10/22 08:13:47;;;;;;;;;;;24.30;99.90;;;;;;5062122;28;19912;-77
2021/10/22 08:16:13;;;;;;;;;;;25.60;99.90;;;;;;5063430;28;19913;-77
2021/10/22 08:18:40;;;;;;;;;;;26.00;99.90;;;;;;5071318;28;19916;-77
2021/10/22 08:23:43;;;;;;;;;;;27.00;99.90;;;;;;5067044;28;19927;-78
2021/10/22 08:26:09;;;;;;;;;;;27.30;99.90;;;;;;5071649;28;20299;-78
2021/10/22 08:28:34;;;;;;;;;;;27.70;99.90;;;;;;5069528;28;19967;-79
2021/10/22 08:31:00;;;;;;;;;;;28.10;99.90;;;;;;5070092;28;19913;-79
2021/10/22 08:33:26;;;;;;;;;;;28.50;99.90;;;;;;5072503;28;19920;-79
2021/10/22 08:35:52;;;;;;;;;;;28.60;99.90;;;;;;5074346;28;19913;-77
2021/10/22 08:38:18;;;;;;;;;;;26.50;99.90;;;;;;5073762;28;19943;-78
2021/10/22 08:40:43;;;;;;;;;;;24.00;99.90;;;;;;5071545;28;19920;-77
2021/10/22 08:43:09;;;;;;;;;;;21.80;99.90;;;;;;5072807;28;19909;-77
2021/10/22 08:45:34;;;;;;;;;;;19.90;99.90;;;;;;5073301;28;20058;-80
2021/10/22 08:48:01;;;;;;;;;;;18.30;99.90;;;;;;5070931;28;20045;-77
2021/10/22 08:50:27;;;;;;;;;;;16.90;99.90;;;;;;5065515;28;20330;-77
2021/10/22 08:52:52;;;;;;;;;;;15.70;99.90;;;;;;5078383;28;19912;-77
2021/10/22 08:55:18;;;;;;;;;;;15.10;99.90;;;;;;5073401;28;19915;-78
2021/10/22 08:57:44;;;;;;;;;;;16.20;99.90;;;;;;5072910;28;20015;-79
2021/10/22 09:00:11;;;;;;;;;;;16.10;99.90;;;;;;5064523;28;20356;-77
2021/10/22 09:02:37;;;;;;;;;;;15.50;99.90;;;;;;5071755;28;19913;-76
2021/10/22 09:05:23;;;;;;;;;;;15.00;99.90;;;;;;5065880;28;19912;-77
2021/10/22 09:07:53;;;;;;;;;;;15.20;99.90;;;;;;5065635;28;19917;-78
2021/10/22 09:11:54;;;;;;;;;;;16.60;99.90;;;;;;5083112;27;20311;-80
2021/10/22 09:14:19;;;;;;;;;;;15.80;99.90;;;;;;5069638;28;20008;-78
2021/10/22 09:16:48;;;;;;;;;;;15.00;99.90;;;;;;5069192;28;19913;-79
2021/10/22 09:19:25;;;;;;;;;;;14.30;99.90;;;;;;5073375;28;20004;-82
2021/10/22 09:21:51;;;;;;;;;;;14.10;99.90;;;;;;5076869;28;19948;-79
2021/10/22 09:24:18;;;;;;;;;;;16.10;99.90;;;;;;5071129;28;19912;-78
2021/10/22 09:26:51;;;;;;;;;;;19.30;99.90;;;;;;5068526;28;19913;-80
2021/10/22 09:29:17;;;;;;;;;;;22.20;99.90;;;;;;5071037;28;19917;-78
2021/10/22 09:31:44;;;;;;;;;;;23.80;99.90;;;;;;5069526;28;19917;-78
2021/10/22 09:34:09;;;;;;;;;;;22.20;99.90;;;;;;5068254;28;19912;-77
2021/10/22 09:36:36;;;;;;;;;;;20.40;99.90;;;;;;5070341;28;19912;-82
2021/10/22 09:39:03;;;;;;;;;;;18.80;99.90;;;;;;5070647;28;19912;-78
2021/10/22 09:41:29;;;;;;;;;;;17.80;99.90;;;;;;5069915;28;19912;-78
2021/10/22 09:43:54;;;;;;;;;;;17.80;99.90;;;;;;5063273;28;19970;-79
2021/10/22 09:46:21;;;;;;;;;;;17.40;99.90;;;;;;5066841;28;20003;-78
2021/10/22 09:48:48;;;;;;;;;;;16.60;99.90;;;;;;5066212;28;19908;-79
2021/10/22 09:51:30;;;;;;;;;;;16.00;99.90;;;;;;5071368;28;19991;-80
2021/10/22 09:54:01;;;;;;;;;;;15.50;99.90;;;;;;5066751;28;19935;-78
2021/10/22 09:56:27;;;;;;;;;;;15.00;99.90;;;;;;5070721;28;19909;-77
2021/10/22 09:58:54;;;;;;;;;;;14.50;99.90;;;;;;5058478;28;19913;-77
2021/10/22 10:01:19;;;;;;;;;;;14.30;99.90;;;;;;5071150;28;19921;-80
2021/10/22 10:03:45;;;;;;;;;;;14.40;99.90;;;;;;5075854;28;19913;-79
2021/10/22 10:06:11;;;;;;;;;;;16.90;99.90;;;;;;5077469;28;20086;-79
2021/10/22 10:08:37;;;;;;;;;;;19.60;99.90;;;;;;5075046;28;19912;-78
2021/10/22 10:11:03;;;;;;;;;;;20.50;99.90;;;;;;5088836;28;19922;-79
2021/10/22 10:13:30;;;;;;;;;;;21.80;99.90;;;;;;5094146;28;19995;-79
2021/10/22 10:15:57;;;;;;;;;;;22.90;99.90;;;;;;5093821;28;19912;-80
2021/10/22 10:18:23;;;;;;;;;;;23.90;99.90;;;;;;5094520;28;19926;-80
2021/10/22 10:20:49;;;;;;;;;;;25.00;99.90;;;;;;5088495;28;20003;-80
2021/10/22 10:23:15;;;;;;;;;;;25.80;99.90;;;;;;5079595;28;19952;-79
2021/10/22 10:25:41;;;;;;;;;;;26.10;99.90;;;;;;5073881;28;19916;-78
2021/10/22 10:28:07;;;;;;;;;;;25.10;99.90;;;;;;5072154;28;19924;-77
2021/10/22 10:30:34;;;;;;;;;;;24.90;99.90;;;;;;5071096;28;20007;-77
2021/10/22 10:33:00;;;;;;;;;;;25.40;99.90;;;;;;5069272;28;20007;-77
2021/10/22 10:35:32;;;;;;;;;;;25.70;99.90;;;;;;5075636;28;20343;-77
2021/10/22 10:37:57;;;;;;;;;;;25.50;99.90;;;;;;5072352;28;20392;-77
2021/10/22 10:40:29;;;;;;;;;;;25.70;99.90;;;;;;5063097;28;20392;-77
2021/10/22 10:42:56;;;;;;;;;;;26.10;99.90;;;;;;5074049;28;19948;-77
2021/10/22 10:45:25;;;;;;;;;;;26.10;99.90;;;;;;5072337;28;19966;-77
2021/10/22 10:47:51;;;;;;;;;;;25.30;99.90;;;;;;5065350;28;20012;-77
2021/10/22 10:50:19;;;;;;;;;;;24.60;99.90;;;;;;5070875;28;20474;-77
2021/10/22 10:52:45;;;;;;;;;;;24.40;99.90;;;;;;5066770;28;19924;-77
2021/10/22 10:55:19;;;;;;;;;;;24.50;99.90;;;;;;5066029;28;19912;-77
2021/10/22 10:57:46;;;;;;;;;;;24.20;99.90;;;;;;5060062;28;20396;-76
2021/10/22 11:00:16;;;;;;;;;;;24.20;99.90;;;;;;5061422;28;19913;-77
2021/10/22 11:03:04;;;;;;;;;;;23.70;99.90;;;;;;5072900;28;19970;-77
2021/10/22 11:05:48;;;;;;;;;;;23.60;99.90;;;;;;5072612;28;19913;-77
2021/10/22 11:08:19;;;;;;;;;;;23.70;99.90;;;;;;5066306;28;19943;-77
2021/10/22 11:11:02;;;;;;;;;;;23.50;99.90;;;;;;5066395;28;19916;-77
2021/10/22 11:13:46;;;;;;;;;;;22.50;99.90;;;;;;5072394;28;19923;-77
2021/10/22 11:16:34;;;;;;;;;;;21.50;99.90;;;;;;5068281;28;19913;-76
2021/10/22 11:19:00;;;;;;;;;;;20.40;99.90;;;;;;5066525;28;19956;-80
2021/10/22 11:21:26;;;;;;;;;;;19.70;99.90;;;;;;5074299;28;19912;-80
2021/10/22 11:23:51;;;;;;;;;;;19.30;99.90;;;;;;5085196;28;19912;-78
2021/10/22 11:26:19;;;;;;;;;;;19.10;99.90;;;;;;5080540;28;19912;-81
2021/10/22 11:28:51;;;;;;;;;;;18.40;99.90;;;;;;5075101;28;19940;-80
2021/10/22 11:31:36;;;;;;;;;;;18.70;99.90;;;;;;5081457;28;20364;-80
2021/10/22 11:34:03;;;;;;;;;;;19.80;99.90;;;;;;5079271;28;20003;-80
2021/10/22 11:36:28;;;;;;;;;;;19.50;99.90;;;;;;5081548;28;19917;-79
2021/10/22 11:38:54;;;;;;;;;;;18.70;99.90;;;;;;5068728;28;19916;-79
2021/10/22 11:41:19;;;;;;;;;;;17.80;99.90;;;;;;5071154;28;19913;-79
2021/10/22 11:44:03;;;;;;;;;;;17.20;99.90;;;;;;5074405;28;20009;-77
2021/10/22 11:46:42;;;;;;;;;;;16.70;99.90;;;;;;5067783;28;19927;-78
2021/10/22 11:49:08;;;;;;;;;;;16.50;99.90;;;;;;5071950;28;19920;-77
2021/10/22 11:51:34;;;;;;;;;;;16.30;99.90;;;;;;5074758;28;19921;-78
2021/10/22 11:53:59;;;;;;;;;;;16.20;99.90;;;;;;5072143;28;19919;-78
2021/10/22 11:56:25;;;;;;;;;;;16.00;99.90;;;;;;5071048;28;19912;-80
2021/10/22 11:58:50;;;;;;;;;;;15.70;99.90;;;;;;5066312;28;19986;-78
2021/10/22 12:01:19;;;;;;;;;;;15.40;99.90;;;;;;5072405;28;19999;-80
2021/10/22 12:03:45;;;;;;;;;;;15.10;99.90;;;;;;5072102;28;19919;-78
2021/10/22 12:06:18;;;;;;;;;;;14.90;99.90;;;;;;5073413;28;20015;-77
2021/10/22 12:08:43;;;;;;;;;;;14.80;99.90;;;;;;5073773;28;20334;-78
2021/10/22 12:11:09;;;;;;;;;;;15.00;99.90;;;;;;5073316;28;19941;-78
2021/10/22 12:13:38;;;;;;;;;;;15.40;99.90;;;;;;5063550;28;19999;-79
2021/10/22 12:16:12;;;;;;;;;;;15.60;99.90;;;;;;5070101;28;20007;-79
2021/10/22 12:18:50;;;;;;;;;;;15.60;99.90;;;;;;5067817;28;19917;-78
2021/10/22 12:21:16;;;;;;;;;;;15.40;99.90;;;;;;5071104;28;19976;-79
2021/10/22 12:23:42;;;;;;;;;;;15.40;99.90;;;;;;5071040;28;19920;-78
2021/10/22 12:26:28;;;;;;;;;;;15.30;99.90;;;;;;5073980;28;19909;-77
2021/10/22 12:29:04;;;;;;;;;;;15.20;99.90;;;;;;5070678;28;20270;-79
2021/10/22 12:31:40;;;;;;;;;;;14.90;99.90;;;;;;5064482;28;19921;-78
2021/10/22 12:34:10;;;;;;;;;;;14.80;99.90;;;;;;5072157;28;19952;-78
2021/10/22 12:36:36;;;;;;;;;;;14.90;99.90;;;;;;5071346;28;19931;-80
2021/10/22 12:39:21;;;;;;;;;;;14.80;99.90;;;;;;5071754;28;20319;-78
2021/10/22 12:41:46;;;;;;;;;;;14.80;99.90;;;;;;5068159;28;20783;-78
2021/10/22 12:44:12;;;;;;;;;;;14.50;99.90;;;;;;5074220;28;19995;-79
2021/10/22 12:46:50;;;;;;;;;;;14.40;99.90;;;;;;5066241;28;19916;-78
2021/10/22 12:49:16;;;;;;;;;;;14.30;99.90;;;;;;5072261;28;19919;-76
2021/10/22 12:51:42;;;;;;;;;;;14.50;99.90;;;;;;5065803;28;20156;-77
2021/10/22 12:54:08;;;;;;;;;;;14.50;99.90;;;;;;5072200;28;19943;-77
2021/10/22 12:56:35;;;;;;;;;;;14.30;99.90;;;;;;5069768;28;19916;-76
2021/10/22 12:59:02;;;;;;;;;;;14.10;99.90;;;;;;5063752;28;20344;-77
2021/10/22 13:01:31;;;;;;;;;;;13.90;99.90;;;;;;5061420;28;20269;-77
2021/10/22 13:04:10;;;;;;;;;;;13.80;99.90;;;;;;5073445;28;19962;-77
2021/10/22 13:06:47;;;;;;;;;;;13.80;99.90;;;;;;5055121;28;19913;-78
2021/10/22 13:22:35;;;;;;;;;;;13.70;99.90;;;;;;5064371;28;20400;-78
2021/10/22 13:25:01;;;;;;;;;;;13.70;99.90;;;;;;5071150;28;19912;-79
2021/10/22 13:27:28;;;;;;;;;;;13.70;99.90;;;;;;5070312;28;20452;-77
2021/10/22 13:29:57;;;;;;;;;;;13.80;99.90;;;;;;5063263;28;19920;-77
2021/10/22 13:32:23;;;;;;;;;;;14.00;99.90;;;;;;5068837;28;19947;-76
2021/10/22 13:34:49;;;;;;;;;;;14.00;99.90;;;;;;5071605;28;19913;-77
2021/10/22 13:37:15;;;;;;;;;;;14.00;99.90;;;;;;5072752;28;19915;-77
2021/10/22 13:39:40;;;;;;;;;;;14.10;99.90;;;;;;5072156;28;19912;-77
2021/10/22 13:42:06;;;;;;;;;;;14.20;99.90;;;;;;5070234;28;19966;-78
2021/10/22 13:44:31;;;;;;;;;;;14.20;99.90;;;;;;5071607;28;19913;-77
2021/10/22 13:46:57;;;;;;;;;;;14.20;99.90;;;;;;5070896;28;19967;-78
2021/10/22 13:49:22;;;;;;;;;;;14.20;99.90;;;;;;5069232;28;20030;-79
2021/10/22 13:51:48;;;;;;;;;;;14.20;99.90;;;;;;5069744;28;19920;-77
2021/10/22 13:54:13;;;;;;;;;;;14.30;99.90;;;;;;5065941;28;19917;-78
2021/10/22 13:56:39;;;;;;;;;;;14.30;99.90;;;;;;5070133;28;19917;-78
2021/10/22 13:59:04;;;;;;;;;;;14.50;99.90;;;;;;5072698;28;19915;-77
2021/10/22 14:01:30;;;;;;;;;;;14.40;99.90;;;;;;5074662;28;19909;-78
2021/10/22 14:03:55;;;;;;;;;;;14.50;99.90;;;;;;5073828;28;19913;-79
2021/10/22 14:06:21;;;;;;;;;;;14.50;99.90;;;;;;5071951;28;20296;-78
2021/10/22 14:08:46;;;;;;;;;;;14.70;99.90;;;;;;5073124;28;19913;-78
2021/10/22 14:11:15;;;;;;;;;;;14.80;99.90;;;;;;5068075;28;19924;-77
2021/10/22 14:13:48;;;;;;;;;;;15.10;99.90;;;;;;5075729;28;20390;-79
2021/10/22 14:16:33;;;;;;;;;;;15.00;99.90;;;;;;5076770;28;19973;-79
2021/10/22 14:24:47;;;;;;;;;;;14.40;99.90;;;;;;5069530;28;19919;-77
2021/10/22 14:29:57;;;;;;;;;;;14.00;99.90;;;;;;5076106;28;19942;-79
2021/10/22 14:32:24;;;;;;;;;;;13.90;99.90;;;;;;5075978;28;19909;-77
2021/10/22 14:34:50;;;;;;;;;;;13.70;99.90;;;;;;5075245;28;19938;-78
2021/10/22 14:37:15;;;;;;;;;;;13.60;99.90;;;;;;5073082;28;19917;-78
2021/10/22 14:39:41;;;;;;;;;;;13.50;99.90;;;;;;5069616;28;19961;-78
2021/10/22 14:42:08;;;;;;;;;;;13.40;99.90;;;;;;5071638;28;19991;-76
2021/10/22 14:44:40;;;;;;;;;;;13.30;99.90;;;;;;5076450;28;19959;-79
2021/10/22 14:47:19;;;;;;;;;;;13.20;99.90;;;;;;5070310;28;19958;-78
2021/10/22 14:49:48;;;;;;;;;;;13.20;99.90;;;;;;5068100;28;19917;-77
2021/10/22 14:54:49;;;;;;;;;;;13.50;99.90;;;;;;5071202;28;19919;-77
2021/10/22 14:57:15;;;;;;;;;;;13.70;99.90;;;;;;5074555;28;19920;-79
2021/10/22 14:59:41;;;;;;;;;;;13.80;99.90;;;;;;5073745;28;20380;-79